Galena, Nevada
Current Conditions -  °F | °C
As of 2:55 AM on Wednesday 26 Nov 2014 (Local Time) from KRNO Reporting Station
Clear Clear  
Wind Chill: 33°   Ceiling: Unl
Heat Index: 33°   Visibility: 10mi
Dew Point: 24°   Wind: 0mph
Humidity: 70%   Direction: NA
Pressure: 30.44"   Gusts: NA
Location:  39.3905°N, 119.807°W
Report Text: KRNO 261055Z 00000KT 10SM CLR 01/M04 A3044 RMK AO2 SLP296 T00061044
Loading
Personal Weather Stations






























Interactive Weather Map New forecast layout! Learn more

10-Day Weather Forecast

Advertisements
Track Severe Weather on mobile